Terminal Aerodrome Forecast
Issued by NWS Portland, OR

Home | Current Version | Previous Version | Text Only | Print | Product List | Glossary On
Versions: 1 2 3 4 5 6 7 8 9 10 11 12 13
000
FTUS46 KPQR 251734
TAFEUG
TAF
KEUG 251734Z 2518/2618 21003KT P6SM FEW200
     FM252100 25008KT P6SM SCT200
     FM260200 24013KT P6SM SCT050 BKN200
     FM260700 20007KT P6SM OVC020=

USA.gov is the U.S. government's official web portal to all federal, state and local government web resources and services.